sensor_id;sensor_type;location;lat;lon;timestamp;P1;durP1;ratioP1;P2;durP2;ratioP2
3643;SDS011;1838;50.742;7.158;2022-11-20T00:00:08;28.70;;;13.47;;
3643;SDS011;1838;50.742;7.158;2022-11-20T00:02:34;35.60;;;15.90;;
3643;SDS011;1838;50.742;7.158;2022-11-20T00:05:00;33.30;;;15.57;;
3643;SDS011;1838;50.742;7.158;2022-11-20T00:07:25;35.50;;;16.50;;
3643;SDS011;1838;50.742;7.158;2022-11-20T00:09:51;30.57;;;15.20;;
3643;SDS011;1838;50.742;7.158;2022-11-20T00:12:16;25.83;;;13.10;;
3643;SDS011;1838;50.742;7.158;2022-11-20T00:14:42;33.47;;;15.83;;
3643;SDS011;1838;50.742;7.158;2022-11-20T00:17:07;34.53;;;14.60;;
3643;SDS011;1838;50.742;7.158;2022-11-20T00:19:33;32.73;;;15.33;;
3643;SDS011;1838;50.742;7.158;2022-11-20T00:21:58;33.40;;;14.40;;
3643;SDS011;1838;50.742;7.158;2022-11-20T00:24:23;35.00;;;15.43;;
3643;SDS011;1838;50.742;7.158;2022-11-20T00:26:49;26.00;;;13.47;;
3643;SDS011;1838;50.742;7.158;2022-11-20T00:29:14;36.47;;;16.87;;
3643;SDS011;1838;50.742;7.158;2022-11-20T00:31:40;32.80;;;15.93;;
3643;SDS011;1838;50.742;7.158;2022-11-20T00:34:06;32.73;;;15.00;;
3643;SDS011;1838;50.742;7.158;2022-11-20T00:36:32;25.30;;;12.47;;
3643;SDS011;1838;50.742;7.158;2022-11-20T00:38:58;26.27;;;13.17;;
3643;SDS011;1838;50.742;7.158;2022-11-20T00:41:25;34.90;;;15.33;;
3643;SDS011;1838;50.742;7.158;2022-11-20T00:43:52;29.63;;;14.60;;
3643;SDS011;1838;50.742;7.158;2022-11-20T00:46:19;32.57;;;15.93;;
3643;SDS011;1838;50.742;7.158;2022-11-20T00:48:46;29.67;;;14.27;;
3643;SDS011;1838;50.742;7.158;2022-11-20T00:51:13;38.03;;;17.17;;
3643;SDS011;1838;50.742;7.158;2022-11-20T00:53:40;28.47;;;13.67;;
3643;SDS011;1838;50.742;7.158;2022-11-20T00:56:07;33.93;;;14.97;;
3643;SDS011;1838;50.742;7.158;2022-11-20T00:58:36;28.33;;;14.80;;
3643;SDS011;1838;50.742;7.158;2022-11-20T01:01:10;32.87;;;14.67;;
3643;SDS011;1838;50.742;7.158;2022-11-20T01:03:37;32.17;;;14.87;;
3643;SDS011;1838;50.742;7.158;2022-11-20T01:06:15;34.07;;;15.60;;
3643;SDS011;1838;50.742;7.158;2022-11-20T01:08:43;34.60;;;16.00;;
3643;SDS011;1838;50.742;7.158;2022-11-20T01:11:10;28.43;;;13.97;;
3643;SDS011;1838;50.742;7.158;2022-11-20T01:13:39;29.10;;;14.50;;
3643;SDS011;1838;50.742;7.158;2022-11-20T01:18:34;32.77;;;15.23;;
3643;SDS011;1838;50.742;7.158;2022-11-20T01:21:01;30.10;;;15.07;;
3643;SDS011;1838;50.742;7.158;2022-11-20T01:23:32;33.57;;;14.57;;
3643;SDS011;1838;50.742;7.158;2022-11-20T01:26:02;36.57;;;14.67;;
3643;SDS011;1838;50.742;7.158;2022-11-20T01:28:29;28.13;;;13.60;;
3643;SDS011;1838;50.742;7.158;2022-11-20T01:30:55;34.83;;;15.83;;
3643;SDS011;1838;50.742;7.158;2022-11-20T01:33:20;36.43;;;16.43;;
3643;SDS011;1838;50.742;7.158;2022-11-20T01:35:46;35.73;;;14.67;;
3643;SDS011;1838;50.742;7.158;2022-11-20T01:38:11;33.00;;;15.80;;
3643;SDS011;1838;50.742;7.158;2022-11-20T01:40:37;35.60;;;15.73;;
3643;SDS011;1838;50.742;7.158;2022-11-20T01:43:36;38.50;;;15.50;;
3643;SDS011;1838;50.742;7.158;2022-11-20T01:46:05;33.77;;;15.00;;
3643;SDS011;1838;50.742;7.158;2022-11-20T01:48:38;32.20;;;14.87;;
3643;SDS011;1838;50.742;7.158;2022-11-20T01:51:24;33.57;;;14.90;;
3643;SDS011;1838;50.742;7.158;2022-11-20T01:53:56;33.73;;;15.30;;
3643;SDS011;1838;50.742;7.158;2022-11-20T01:56:24;30.83;;;14.83;;
3643;SDS011;1838;50.742;7.158;2022-11-20T01:58:52;34.03;;;17.10;;
3643;SDS011;1838;50.742;7.158;2022-11-20T02:01:21;35.00;;;15.60;;
3643;SDS011;1838;50.742;7.158;2022-11-20T02:03:47;33.03;;;15.40;;
3643;SDS011;1838;50.742;7.158;2022-11-20T02:08:44;33.80;;;14.97;;
3643;SDS011;1838;50.742;7.158;2022-11-20T02:11:09;33.80;;;16.00;;
3643;SDS011;1838;50.742;7.158;2022-11-20T02:13:35;32.13;;;15.10;;
3643;SDS011;1838;50.742;7.158;2022-11-20T02:16:14;30.80;;;14.30;;
3643;SDS011;1838;50.742;7.158;2022-11-20T02:18:40;32.70;;;15.00;;
3643;SDS011;1838;50.742;7.158;2022-11-20T02:26:30;33.57;;;15.60;;
3643;SDS011;1838;50.742;7.158;2022-11-20T02:28:58;36.60;;;16.17;;
3643;SDS011;1838;50.742;7.158;2022-11-20T02:31:25;37.27;;;16.40;;
3643;SDS011;1838;50.742;7.158;2022-11-20T02:33:54;38.00;;;15.83;;
3643;SDS011;1838;50.742;7.158;2022-11-20T02:36:21;30.93;;;14.73;;
3643;SDS011;1838;50.742;7.158;2022-11-20T02:38:48;35.43;;;16.37;;
3643;SDS011;1838;50.742;7.158;2022-11-20T02:41:14;36.70;;;15.13;;
3643;SDS011;1838;50.742;7.158;2022-11-20T02:43:40;30.37;;;14.73;;
3643;SDS011;1838;50.742;7.158;2022-11-20T02:46:06;35.93;;;16.10;;
3643;SDS011;1838;50.742;7.158;2022-11-20T02:48:32;34.50;;;16.03;;
3643;SDS011;1838;50.742;7.158;2022-11-20T02:50:58;38.43;;;16.07;;
3643;SDS011;1838;50.742;7.158;2022-11-20T02:53:23;31.27;;;14.00;;
3643;SDS011;1838;50.742;7.158;2022-11-20T02:55:49;36.03;;;16.30;;
3643;SDS011;1838;50.742;7.158;2022-11-20T02:58:14;38.80;;;15.67;;
3643;SDS011;1838;50.742;7.158;2022-11-20T03:00:40;31.97;;;15.20;;
3643;SDS011;1838;50.742;7.158;2022-11-20T03:03:05;33.17;;;15.17;;
3643;SDS011;1838;50.742;7.158;2022-11-20T03:05:31;35.80;;;15.27;;
3643;SDS011;1838;50.742;7.158;2022-11-20T03:07:56;32.40;;;15.37;;
3643;SDS011;1838;50.742;7.158;2022-11-20T03:10:22;30.03;;;14.47;;
3643;SDS011;1838;50.742;7.158;2022-11-20T03:12:47;30.10;;;13.30;;
3643;SDS011;1838;50.742;7.158;2022-11-20T03:15:19;32.47;;;14.50;;
3643;SDS011;1838;50.742;7.158;2022-11-20T03:17:44;30.40;;;14.40;;
3643;SDS011;1838;50.742;7.158;2022-11-20T03:20:10;31.03;;;15.27;;
3643;SDS011;1838;50.742;7.158;2022-11-20T03:22:36;34.73;;;15.93;;
3643;SDS011;1838;50.742;7.158;2022-11-20T03:25:01;36.17;;;17.50;;
3643;SDS011;1838;50.742;7.158;2022-11-20T03:27:27;32.23;;;15.83;;
3643;SDS011;1838;50.742;7.158;2022-11-20T03:29:57;35.67;;;15.73;;
3643;SDS011;1838;50.742;7.158;2022-11-20T03:32:23;37.10;;;16.80;;
3643;SDS011;1838;50.742;7.158;2022-11-20T03:34:48;37.27;;;18.03;;
3643;SDS011;1838;50.742;7.158;2022-11-20T03:37:13;32.63;;;15.20;;
3643;SDS011;1838;50.742;7.158;2022-11-20T03:39:39;33.80;;;15.43;;
3643;SDS011;1838;50.742;7.158;2022-11-20T03:42:04;37.60;;;16.40;;
3643;SDS011;1838;50.742;7.158;2022-11-20T03:44:50;29.90;;;14.63;;
3643;SDS011;1838;50.742;7.158;2022-11-20T03:47:15;36.70;;;16.83;;
3643;SDS011;1838;50.742;7.158;2022-11-20T03:49:41;34.63;;;14.87;;
3643;SDS011;1838;50.742;7.158;2022-11-20T03:52:06;37.07;;;16.87;;
3643;SDS011;1838;50.742;7.158;2022-11-20T03:54:32;31.03;;;16.80;;
3643;SDS011;1838;50.742;7.158;2022-11-20T03:56:58;35.60;;;16.73;;
3643;SDS011;1838;50.742;7.158;2022-11-20T03:59:23;35.80;;;17.10;;
3643;SDS011;1838;50.742;7.158;2022-11-20T04:01:48;40.73;;;16.20;;
3643;SDS011;1838;50.742;7.158;2022-11-20T04:04:14;35.03;;;15.90;;
3643;SDS011;1838;50.742;7.158;2022-11-20T04:06:39;35.23;;;17.23;;
3643;SDS011;1838;50.742;7.158;2022-11-20T04:09:05;37.37;;;16.37;;
3643;SDS011;1838;50.742;7.158;2022-11-20T04:11:35;35.43;;;16.90;;
3643;SDS011;1838;50.742;7.158;2022-11-20T04:14:03;36.53;;;16.70;;
3643;SDS011;1838;50.742;7.158;2022-11-20T04:16:30;36.63;;;15.80;;
3643;SDS011;1838;50.742;7.158;2022-11-20T04:18:58;41.10;;;18.10;;
3643;SDS011;1838;50.742;7.158;2022-11-20T04:21:25;41.97;;;17.90;;
3643;SDS011;1838;50.742;7.158;2022-11-20T04:23:51;37.67;;;17.20;;
3643;SDS011;1838;50.742;7.158;2022-11-20T04:26:21;37.20;;;17.97;;
3643;SDS011;1838;50.742;7.158;2022-11-20T04:28:48;43.67;;;17.60;;
3643;SDS011;1838;50.742;7.158;2022-11-20T04:31:15;42.33;;;18.17;;
3643;SDS011;1838;50.742;7.158;2022-11-20T04:33:42;41.07;;;17.90;;
3643;SDS011;1838;50.742;7.158;2022-11-20T04:38:56;35.00;;;15.97;;
3643;SDS011;1838;50.742;7.158;2022-11-20T04:41:24;40.13;;;17.03;;
3643;SDS011;1838;50.742;7.158;2022-11-20T04:43:51;38.93;;;16.03;;
3643;SDS011;1838;50.742;7.158;2022-11-20T04:46:23;33.37;;;16.20;;
3643;SDS011;1838;50.742;7.158;2022-11-20T04:48:49;38.73;;;17.47;;
3643;SDS011;1838;50.742;7.158;2022-11-20T04:51:15;39.70;;;18.70;;
3643;SDS011;1838;50.742;7.158;2022-11-20T04:53:40;36.33;;;17.10;;
3643;SDS011;1838;50.742;7.158;2022-11-20T04:56:07;44.40;;;17.30;;
3643;SDS011;1838;50.742;7.158;2022-11-20T04:58:34;40.33;;;17.13;;
3643;SDS011;1838;50.742;7.158;2022-11-20T05:01:03;46.37;;;17.63;;
3643;SDS011;1838;50.742;7.158;2022-11-20T05:03:30;42.17;;;18.97;;
3643;SDS011;1838;50.742;7.158;2022-11-20T05:05:56;37.17;;;16.73;;
3643;SDS011;1838;50.742;7.158;2022-11-20T05:08:24;54.67;;;17.80;;
3643;SDS011;1838;50.742;7.158;2022-11-20T05:10:50;41.67;;;20.40;;
3643;SDS011;1838;50.742;7.158;2022-11-20T05:13:15;43.90;;;18.03;;
3643;SDS011;1838;50.742;7.158;2022-11-20T05:15:41;39.10;;;18.70;;
3643;SDS011;1838;50.742;7.158;2022-11-20T05:18:06;50.30;;;20.63;;
3643;SDS011;1838;50.742;7.158;2022-11-20T05:20:32;43.83;;;19.40;;
3643;SDS011;1838;50.742;7.158;2022-11-20T05:22:57;40.03;;;19.93;;
3643;SDS011;1838;50.742;7.158;2022-11-20T05:25:23;48.40;;;19.97;;
3643;SDS011;1838;50.742;7.158;2022-11-20T05:27:48;46.93;;;20.33;;
3643;SDS011;1838;50.742;7.158;2022-11-20T05:30:14;44.90;;;18.23;;
3643;SDS011;1838;50.742;7.158;2022-11-20T05:32:40;48.70;;;20.17;;
3643;SDS011;1838;50.742;7.158;2022-11-20T05:35:05;44.43;;;18.83;;
3643;SDS011;1838;50.742;7.158;2022-11-20T05:37:31;38.50;;;19.60;;
3643;SDS011;1838;50.742;7.158;2022-11-20T05:39:57;43.60;;;20.10;;
3643;SDS011;1838;50.742;7.158;2022-11-20T05:42:22;43.70;;;18.43;;
3643;SDS011;1838;50.742;7.158;2022-11-20T05:44:57;41.83;;;19.10;;
3643;SDS011;1838;50.742;7.158;2022-11-20T05:47:24;46.07;;;19.03;;
3643;SDS011;1838;50.742;7.158;2022-11-20T05:49:50;43.50;;;17.73;;
3643;SDS011;1838;50.742;7.158;2022-11-20T05:52:15;55.60;;;22.03;;
3643;SDS011;1838;50.742;7.158;2022-11-20T05:54:41;46.77;;;19.90;;
3643;SDS011;1838;50.742;7.158;2022-11-20T05:57:06;44.53;;;19.37;;
3643;SDS011;1838;50.742;7.158;2022-11-20T05:59:32;46.27;;;19.60;;
3643;SDS011;1838;50.742;7.158;2022-11-20T06:01:57;46.47;;;18.57;;
3643;SDS011;1838;50.742;7.158;2022-11-20T06:04:23;41.47;;;18.17;;
3643;SDS011;1838;50.742;7.158;2022-11-20T06:06:48;40.70;;;18.60;;
3643;SDS011;1838;50.742;7.158;2022-11-20T06:09:14;49.93;;;19.60;;
3643;SDS011;1838;50.742;7.158;2022-11-20T06:11:39;40.57;;;18.57;;
3643;SDS011;1838;50.742;7.158;2022-11-20T06:14:05;42.10;;;19.67;;
3643;SDS011;1838;50.742;7.158;2022-11-20T06:16:30;48.53;;;19.17;;
3643;SDS011;1838;50.742;7.158;2022-11-20T06:18:56;44.57;;;19.30;;
3643;SDS011;1838;50.742;7.158;2022-11-20T06:21:21;43.27;;;19.90;;
3643;SDS011;1838;50.742;7.158;2022-11-20T06:23:48;33.37;;;16.60;;
3643;SDS011;1838;50.742;7.158;2022-11-20T06:26:16;34.87;;;16.50;;
3643;SDS011;1838;50.742;7.158;2022-11-20T06:28:47;35.80;;;17.70;;
3643;SDS011;1838;50.742;7.158;2022-11-20T06:31:14;33.57;;;16.53;;
3643;SDS011;1838;50.742;7.158;2022-11-20T06:33:41;34.13;;;16.23;;
3643;SDS011;1838;50.742;7.158;2022-11-20T06:36:08;32.77;;;16.13;;
3643;SDS011;1838;50.742;7.158;2022-11-20T06:38:35;38.63;;;17.33;;
3643;SDS011;1838;50.742;7.158;2022-11-20T06:41:01;37.10;;;15.47;;
3643;SDS011;1838;50.742;7.158;2022-11-20T06:43:28;38.07;;;17.07;;
3643;SDS011;1838;50.742;7.158;2022-11-20T06:45:55;37.07;;;16.97;;
3643;SDS011;1838;50.742;7.158;2022-11-20T06:48:22;36.90;;;15.90;;
3643;SDS011;1838;50.742;7.158;2022-11-20T06:50:48;36.00;;;14.70;;
3643;SDS011;1838;50.742;7.158;2022-11-20T06:53:14;31.80;;;14.83;;
3643;SDS011;1838;50.742;7.158;2022-11-20T06:55:43;28.93;;;14.00;;
3643;SDS011;1838;50.742;7.158;2022-11-20T06:58:09;37.67;;;17.90;;
3643;SDS011;1838;50.742;7.158;2022-11-20T07:00:35;36.90;;;16.87;;
3643;SDS011;1838;50.742;7.158;2022-11-20T07:03:04;34.37;;;15.17;;
3643;SDS011;1838;50.742;7.158;2022-11-20T07:05:30;36.33;;;16.00;;
3643;SDS011;1838;50.742;7.158;2022-11-20T07:07:56;36.10;;;16.20;;
3643;SDS011;1838;50.742;7.158;2022-11-20T07:10:22;31.33;;;13.53;;
3643;SDS011;1838;50.742;7.158;2022-11-20T07:12:54;28.70;;;14.07;;
3643;SDS011;1838;50.742;7.158;2022-11-20T07:15:20;32.33;;;15.93;;
3643;SDS011;1838;50.742;7.158;2022-11-20T07:17:47;32.43;;;15.60;;
3643;SDS011;1838;50.742;7.158;2022-11-20T07:20:13;33.40;;;15.90;;
3643;SDS011;1838;50.742;7.158;2022-11-20T07:22:39;30.90;;;15.43;;
3643;SDS011;1838;50.742;7.158;2022-11-20T07:25:05;34.97;;;15.37;;
3643;SDS011;1838;50.742;7.158;2022-11-20T07:27:31;35.67;;;16.67;;
3643;SDS011;1838;50.742;7.158;2022-11-20T07:29:57;32.47;;;15.43;;
3643;SDS011;1838;50.742;7.158;2022-11-20T07:32:23;35.23;;;15.23;;
3643;SDS011;1838;50.742;7.158;2022-11-20T07:34:48;32.97;;;15.80;;
3643;SDS011;1838;50.742;7.158;2022-11-20T07:37:14;34.77;;;16.60;;
3643;SDS011;1838;50.742;7.158;2022-11-20T07:39:40;24.30;;;13.63;;
3643;SDS011;1838;50.742;7.158;2022-11-20T07:42:06;36.47;;;17.17;;
3643;SDS011;1838;50.742;7.158;2022-11-20T07:44:33;35.50;;;15.57;;
3643;SDS011;1838;50.742;7.158;2022-11-20T07:46:58;30.83;;;15.70;;
3643;SDS011;1838;50.742;7.158;2022-11-20T07:49:24;31.90;;;16.23;;
3643;SDS011;1838;50.742;7.158;2022-11-20T07:51:50;34.80;;;16.47;;
3643;SDS011;1838;50.742;7.158;2022-11-20T07:54:16;36.37;;;17.00;;
3643;SDS011;1838;50.742;7.158;2022-11-20T07:56:42;32.80;;;14.63;;
3643;SDS011;1838;50.742;7.158;2022-11-20T07:59:07;37.20;;;16.90;;
3643;SDS011;1838;50.742;7.158;2022-11-20T08:01:33;34.00;;;16.83;;
3643;SDS011;1838;50.742;7.158;2022-11-20T08:03:58;43.20;;;18.07;;
3643;SDS011;1838;50.742;7.158;2022-11-20T08:06:23;35.33;;;17.17;;
3643;SDS011;1838;50.742;7.158;2022-11-20T08:08:49;37.27;;;17.77;;
3643;SDS011;1838;50.742;7.158;2022-11-20T08:11:15;37.20;;;16.80;;
3643;SDS011;1838;50.742;7.158;2022-11-20T08:14:00;38.37;;;18.63;;
3643;SDS011;1838;50.742;7.158;2022-11-20T08:16:47;41.00;;;18.13;;
3643;SDS011;1838;50.742;7.158;2022-11-20T08:19:14;45.37;;;19.30;;
3643;SDS011;1838;50.742;7.158;2022-11-20T08:21:41;41.30;;;17.93;;
3643;SDS011;1838;50.742;7.158;2022-11-20T08:24:07;43.57;;;18.77;;
3643;SDS011;1838;50.742;7.158;2022-11-20T08:26:33;41.87;;;18.37;;
3643;SDS011;1838;50.742;7.158;2022-11-20T08:28:59;42.60;;;19.53;;
3643;SDS011;1838;50.742;7.158;2022-11-20T08:31:25;45.80;;;21.30;;
3643;SDS011;1838;50.742;7.158;2022-11-20T08:33:52;39.77;;;19.33;;
3643;SDS011;1838;50.742;7.158;2022-11-20T08:36:19;42.93;;;18.67;;
3643;SDS011;1838;50.742;7.158;2022-11-20T08:38:48;41.03;;;18.50;;
3643;SDS011;1838;50.742;7.158;2022-11-20T08:41:15;46.23;;;19.73;;
3643;SDS011;1838;50.742;7.158;2022-11-20T08:43:58;49.30;;;20.90;;
3643;SDS011;1838;50.742;7.158;2022-11-20T08:46:25;42.10;;;19.50;;
3643;SDS011;1838;50.742;7.158;2022-11-20T08:48:52;37.73;;;17.70;;
3643;SDS011;1838;50.742;7.158;2022-11-20T08:51:17;42.90;;;18.50;;
3643;SDS011;1838;50.742;7.158;2022-11-20T08:53:44;38.90;;;18.97;;
3643;SDS011;1838;50.742;7.158;2022-11-20T08:56:10;41.03;;;18.13;;
3643;SDS011;1838;50.742;7.158;2022-11-20T08:58:36;39.20;;;18.10;;
3643;SDS011;1838;50.742;7.158;2022-11-20T09:01:02;44.03;;;18.60;;
3643;SDS011;1838;50.742;7.158;2022-11-20T09:03:28;38.77;;;17.23;;
3643;SDS011;1838;50.742;7.158;2022-11-20T09:05:58;45.67;;;19.73;;
3643;SDS011;1838;50.742;7.158;2022-11-20T09:08:25;38.70;;;19.60;;
3643;SDS011;1838;50.742;7.158;2022-11-20T09:10:51;42.93;;;18.37;;
3643;SDS011;1838;50.742;7.158;2022-11-20T09:13:17;41.10;;;19.00;;
3643;SDS011;1838;50.742;7.158;2022-11-20T09:15:42;45.73;;;18.10;;
3643;SDS011;1838;50.742;7.158;2022-11-20T09:18:08;43.47;;;19.60;;
3643;SDS011;1838;50.742;7.158;2022-11-20T09:20:33;41.80;;;18.13;;
3643;SDS011;1838;50.742;7.158;2022-11-20T09:22:59;39.57;;;18.90;;
3643;SDS011;1838;50.742;7.158;2022-11-20T09:25:24;34.10;;;17.13;;
3643;SDS011;1838;50.742;7.158;2022-11-20T09:27:57;37.10;;;17.90;;
3643;SDS011;1838;50.742;7.158;2022-11-20T09:30:23;40.33;;;18.77;;
3643;SDS011;1838;50.742;7.158;2022-11-20T09:32:49;36.10;;;17.33;;
3643;SDS011;1838;50.742;7.158;2022-11-20T09:35:15;37.07;;;18.87;;
3643;SDS011;1838;50.742;7.158;2022-11-20T09:37:41;39.00;;;18.43;;
3643;SDS011;1838;50.742;7.158;2022-11-20T09:40:08;40.20;;;17.70;;
3643;SDS011;1838;50.742;7.158;2022-11-20T09:45:37;45.83;;;20.27;;
3643;SDS011;1838;50.742;7.158;2022-11-20T09:54:05;41.50;;;19.27;;
3643;SDS011;1838;50.742;7.158;2022-11-20T09:56:42;38.87;;;18.17;;
3643;SDS011;1838;50.742;7.158;2022-11-20T09:59:14;42.93;;;18.47;;
3643;SDS011;1838;50.742;7.158;2022-11-20T10:01:50;38.90;;;18.20;;
3643;SDS011;1838;50.742;7.158;2022-11-20T10:04:17;41.10;;;18.40;;
3643;SDS011;1838;50.742;7.158;2022-11-20T10:09:31;38.60;;;18.77;;
3643;SDS011;1838;50.742;7.158;2022-11-20T10:26:02;38.17;;;18.07;;
3643;SDS011;1838;50.742;7.158;2022-11-20T10:28:53;33.23;;;16.00;;
3643;SDS011;1838;50.742;7.158;2022-11-20T10:31:34;33.90;;;15.63;;
3643;SDS011;1838;50.742;7.158;2022-11-20T10:34:07;39.73;;;17.87;;
3643;SDS011;1838;50.742;7.158;2022-11-20T10:36:58;36.53;;;16.73;;
3643;SDS011;1838;50.742;7.158;2022-11-20T10:41:59;34.27;;;16.33;;
3643;SDS011;1838;50.742;7.158;2022-11-20T10:44:28;32.03;;;15.60;;
3643;SDS011;1838;50.742;7.158;2022-11-20T10:47:14;32.93;;;14.37;;
3643;SDS011;1838;50.742;7.158;2022-11-20T10:49:43;33.30;;;14.90;;
3643;SDS011;1838;50.742;7.158;2022-11-20T10:52:16;35.43;;;16.67;;
3643;SDS011;1838;50.742;7.158;2022-11-20T10:54:51;36.97;;;17.50;;
3643;SDS011;1838;50.742;7.158;2022-11-20T10:57:27;31.17;;;14.17;;
3643;SDS011;1838;50.742;7.158;2022-11-20T11:00:12;37.60;;;16.33;;
3643;SDS011;1838;50.742;7.158;2022-11-20T11:02:43;32.23;;;15.40;;
3643;SDS011;1838;50.742;7.158;2022-11-20T11:07:52;35.73;;;16.03;;
3643;SDS011;1838;50.742;7.158;2022-11-20T11:10:24;32.27;;;15.17;;
3643;SDS011;1838;50.742;7.158;2022-11-20T11:13:06;32.83;;;15.63;;
3643;SDS011;1838;50.742;7.158;2022-11-20T11:15:39;32.80;;;14.80;;
3643;SDS011;1838;50.742;7.158;2022-11-20T11:18:09;30.23;;;13.70;;
3643;SDS011;1838;50.742;7.158;2022-11-20T11:20:35;34.47;;;16.20;;
3643;SDS011;1838;50.742;7.158;2022-11-20T11:23:01;33.27;;;16.30;;
3643;SDS011;1838;50.742;7.158;2022-11-20T11:25:34;31.40;;;14.90;;
3643;SDS011;1838;50.742;7.158;2022-11-20T11:28:02;33.83;;;14.90;;
3643;SDS011;1838;50.742;7.158;2022-11-20T11:30:30;38.00;;;15.73;;
3643;SDS011;1838;50.742;7.158;2022-11-20T11:33:08;35.40;;;16.53;;
3643;SDS011;1838;50.742;7.158;2022-11-20T11:35:39;33.37;;;15.77;;
3643;SDS011;1838;50.742;7.158;2022-11-20T11:38:14;29.50;;;15.87;;
3643;SDS011;1838;50.742;7.158;2022-11-20T11:40:44;40.00;;;17.63;;
3643;SDS011;1838;50.742;7.158;2022-11-20T11:43:19;31.87;;;16.33;;
3643;SDS011;1838;50.742;7.158;2022-11-20T11:46:25;35.67;;;15.00;;
3643;SDS011;1838;50.742;7.158;2022-11-20T11:51:39;28.00;;;13.70;;
3643;SDS011;1838;50.742;7.158;2022-11-20T11:54:19;29.40;;;14.63;;
3643;SDS011;1838;50.742;7.158;2022-11-20T11:57:52;35.57;;;16.10;;
3643;SDS011;1838;50.742;7.158;2022-11-20T12:00:20;32.33;;;15.23;;
3643;SDS011;1838;50.742;7.158;2022-11-20T12:05:18;30.00;;;14.13;;
3643;SDS011;1838;50.742;7.158;2022-11-20T12:07:57;32.47;;;15.00;;
3643;SDS011;1838;50.742;7.158;2022-11-20T12:15:46;24.93;;;13.17;;
3643;SDS011;1838;50.742;7.158;2022-11-20T12:18:14;27.20;;;13.73;;
3643;SDS011;1838;50.742;7.158;2022-11-20T12:20:45;29.70;;;13.30;;
3643;SDS011;1838;50.742;7.158;2022-11-20T12:23:28;28.60;;;12.70;;
3643;SDS011;1838;50.742;7.158;2022-11-20T12:26:05;27.87;;;14.23;;
3643;SDS011;1838;50.742;7.158;2022-11-20T12:28:44;31.33;;;14.43;;
3643;SDS011;1838;50.742;7.158;2022-11-20T12:31:18;27.50;;;13.30;;
3643;SDS011;1838;50.742;7.158;2022-11-20T12:34:12;31.63;;;14.37;;
3643;SDS011;1838;50.742;7.158;2022-11-20T12:42:02;29.73;;;13.73;;
3643;SDS011;1838;50.742;7.158;2022-11-20T12:53:55;30.23;;;15.30;;
3643;SDS011;1838;50.742;7.158;2022-11-20T12:56:43;26.20;;;14.57;;
3643;SDS011;1838;50.742;7.158;2022-11-20T13:07:12;24.40;;;13.70;;
3643;SDS011;1838;50.742;7.158;2022-11-20T13:09:46;28.90;;;13.43;;
3643;SDS011;1838;50.742;7.158;2022-11-20T13:12:22;25.43;;;12.97;;
3643;SDS011;1838;50.742;7.158;2022-11-20T13:15:36;27.27;;;12.93;;
3643;SDS011;1838;50.742;7.158;2022-11-20T13:17:54;25.90;;;13.30;;
3643;SDS011;1838;50.742;7.158;2022-11-20T13:20:22;22.90;;;11.77;;
3643;SDS011;1838;50.742;7.158;2022-11-20T13:22:49;29.00;;;12.90;;
3643;SDS011;1838;50.742;7.158;2022-11-20T13:25:23;22.67;;;12.67;;
3643;SDS011;1838;50.742;7.158;2022-11-20T13:27:51;28.70;;;13.43;;
3643;SDS011;1838;50.742;7.158;2022-11-20T13:30:18;25.40;;;14.00;;
3643;SDS011;1838;50.742;7.158;2022-11-20T13:38:07;25.67;;;12.63;;
3643;SDS011;1838;50.742;7.158;2022-11-20T13:40:36;25.40;;;12.97;;
3643;SDS011;1838;50.742;7.158;2022-11-20T13:43:26;25.77;;;13.60;;
3643;SDS011;1838;50.742;7.158;2022-11-20T13:46:06;24.20;;;13.33;;
3643;SDS011;1838;50.742;7.158;2022-11-20T13:48:40;27.10;;;13.80;;
3643;SDS011;1838;50.742;7.158;2022-11-20T13:56:43;25.30;;;13.90;;
3643;SDS011;1838;50.742;7.158;2022-11-20T14:02:27;24.67;;;12.20;;
3643;SDS011;1838;50.742;7.158;2022-11-20T14:04:56;19.70;;;11.23;;
3643;SDS011;1838;50.742;7.158;2022-11-20T14:07:24;29.50;;;13.33;;
3643;SDS011;1838;50.742;7.158;2022-11-20T14:09:56;30.77;;;14.60;;
3643;SDS011;1838;50.742;7.158;2022-11-20T14:12:27;25.53;;;13.13;;
3643;SDS011;1838;50.742;7.158;2022-11-20T14:14:54;29.17;;;15.27;;
3643;SDS011;1838;50.742;7.158;2022-11-20T14:19:50;23.63;;;12.10;;
3643;SDS011;1838;50.742;7.158;2022-11-20T14:24:46;27.07;;;14.57;;
3643;SDS011;1838;50.742;7.158;2022-11-20T14:27:13;25.43;;;14.13;;
3643;SDS011;1838;50.742;7.158;2022-11-20T14:29:44;29.33;;;14.57;;
3643;SDS011;1838;50.742;7.158;2022-11-20T14:32:13;24.17;;;14.40;;
3643;SDS011;1838;50.742;7.158;2022-11-20T14:34:41;27.10;;;13.70;;
3643;SDS011;1838;50.742;7.158;2022-11-20T14:37:13;33.20;;;14.70;;
3643;SDS011;1838;50.742;7.158;2022-11-20T14:39:49;24.17;;;13.20;;
3643;SDS011;1838;50.742;7.158;2022-11-20T14:42:26;25.27;;;13.27;;
3643;SDS011;1838;50.742;7.158;2022-11-20T14:44:56;27.87;;;14.40;;
3643;SDS011;1838;50.742;7.158;2022-11-20T14:47:25;32.53;;;15.20;;
3643;SDS011;1838;50.742;7.158;2022-11-20T14:49:52;27.57;;;13.87;;
3643;SDS011;1838;50.742;7.158;2022-11-20T14:52:20;27.57;;;14.37;;
3643;SDS011;1838;50.742;7.158;2022-11-20T14:54:51;32.27;;;15.57;;
3643;SDS011;1838;50.742;7.158;2022-11-20T14:59:50;26.87;;;12.93;;
3643;SDS011;1838;50.742;7.158;2022-11-20T15:02:15;32.67;;;13.63;;
3643;SDS011;1838;50.742;7.158;2022-11-20T15:04:45;31.60;;;15.27;;
3643;SDS011;1838;50.742;7.158;2022-11-20T15:07:11;23.70;;;13.93;;
3643;SDS011;1838;50.742;7.158;2022-11-20T15:09:47;26.43;;;13.17;;
3643;SDS011;1838;50.742;7.158;2022-11-20T15:12:23;23.80;;;13.30;;
3643;SDS011;1838;50.742;7.158;2022-11-20T15:14:49;29.10;;;14.03;;
3643;SDS011;1838;50.742;7.158;2022-11-20T15:17:14;30.77;;;14.77;;
3643;SDS011;1838;50.742;7.158;2022-11-20T15:19:40;30.20;;;14.23;;
3643;SDS011;1838;50.742;7.158;2022-11-20T15:22:08;28.23;;;13.73;;
3643;SDS011;1838;50.742;7.158;2022-11-20T15:24:38;33.20;;;15.03;;
3643;SDS011;1838;50.742;7.158;2022-11-20T15:27:03;28.63;;;13.60;;
3643;SDS011;1838;50.742;7.158;2022-11-20T15:29:29;36.03;;;14.53;;
3643;SDS011;1838;50.742;7.158;2022-11-20T15:31:54;26.20;;;13.10;;
3643;SDS011;1838;50.742;7.158;2022-11-20T15:34:20;24.80;;;12.87;;
3643;SDS011;1838;50.742;7.158;2022-11-20T15:36:46;22.00;;;12.63;;
3643;SDS011;1838;50.742;7.158;2022-11-20T15:39:11;19.47;;;8.83;;
3643;SDS011;1838;50.742;7.158;2022-11-20T15:41:37;16.30;;;7.90;;
3643;SDS011;1838;50.742;7.158;2022-11-20T15:44:03;14.43;;;7.07;;
3643;SDS011;1838;50.742;7.158;2022-11-20T15:46:30;18.23;;;9.47;;
3643;SDS011;1838;50.742;7.158;2022-11-20T15:49:03;13.00;;;7.13;;
3643;SDS011;1838;50.742;7.158;2022-11-20T15:53:55;13.27;;;6.60;;
3643;SDS011;1838;50.742;7.158;2022-11-20T15:56:21;17.90;;;8.13;;
3643;SDS011;1838;50.742;7.158;2022-11-20T15:58:46;16.67;;;9.07;;
3643;SDS011;1838;50.742;7.158;2022-11-20T16:01:13;11.83;;;8.13;;
3643;SDS011;1838;50.742;7.158;2022-11-20T16:03:40;16.23;;;9.20;;
3643;SDS011;1838;50.742;7.158;2022-11-20T16:06:06;13.57;;;7.63;;
3643;SDS011;1838;50.742;7.158;2022-11-20T16:08:31;11.43;;;6.53;;
3643;SDS011;1838;50.742;7.158;2022-11-20T16:10:57;11.70;;;6.30;;
3643;SDS011;1838;50.742;7.158;2022-11-20T16:13:23;20.13;;;6.97;;
3643;SDS011;1838;50.742;7.158;2022-11-20T16:16:07;11.90;;;5.43;;
3643;SDS011;1838;50.742;7.158;2022-11-20T16:18:43;6.20;;;4.00;;
3643;SDS011;1838;50.742;7.158;2022-11-20T16:21:10;9.83;;;4.50;;
3643;SDS011;1838;50.742;7.158;2022-11-20T16:23:38;13.63;;;4.60;;
3643;SDS011;1838;50.742;7.158;2022-11-20T16:26:13;6.40;;;4.07;;
3643;SDS011;1838;50.742;7.158;2022-11-20T16:28:41;6.23;;;3.20;;
3643;SDS011;1838;50.742;7.158;2022-11-20T16:31:14;8.63;;;3.27;;
3643;SDS011;1838;50.742;7.158;2022-11-20T16:33:41;3.00;;;2.67;;
3643;SDS011;1838;50.742;7.158;2022-11-20T16:36:13;5.30;;;3.20;;
3643;SDS011;1838;50.742;7.158;2022-11-20T16:38:41;4.10;;;2.10;;